<?xml version="1.0" encoding="UTF-8" standalone="no" ?>
<gpx xmlns="http://www.topografix.com/GPX/1/1" xmlns:xsi="http://www.w3.org/2001/XMLSchema-instance" xsi:schemaLocation="http://www.topografix.com/GPX/1/1 http://www.topografix.com/GPX/1/1/gpx.xsd" version="1.1" creator="VisuGPX - https://www.visugpx.com">
  <metadata>
    <name>St Montan Imbours</name>
    <desc><![CDATA[Rando réalisée le 030222 avec le club des chamois verts de Valence.]]></desc>
  </metadata>
  <trk>
    <name><![CDATA[St Montan Les Gorges 030222 MCB N3]]></name>
    <trkseg>
      <trkpt lat="44.43937" lon="4.62443">
        <ele>103.48</ele>
        <time>2022-02-03T08:00:39Z</time>
      </trkpt>
      <trkpt lat="44.43945" lon="4.62422">
        <ele>105.4</ele>
        <time>2022-02-03T08:01:20Z</time>
      </trkpt>
      <trkpt lat="44.43942" lon="4.62404">
        <ele>105.4</ele>
        <time>2022-02-03T08:01:45Z</time>
      </trkpt>
      <trkpt lat="44.43923" lon="4.62418">
        <ele>104.44</ele>
        <time>2022-02-03T08:02:02Z</time>
      </trkpt>
      <trkpt lat="44.43904" lon="4.62434">
        <ele>104.92</ele>
        <time>2022-02-03T08:02:24Z</time>
      </trkpt>
      <trkpt lat="44.43887" lon="4.62459">
        <ele>103.96</ele>
        <time>2022-02-03T08:02:47Z</time>
      </trkpt>
      <trkpt lat="44.43869" lon="4.62475">
        <ele>102.52</ele>
        <time>2022-02-03T08:03:07Z</time>
      </trkpt>
      <trkpt lat="44.43839" lon="4.62464">
        <ele>101.08</ele>
        <time>2022-02-03T08:03:31Z</time>
      </trkpt>
      <trkpt lat="44.43782" lon="4.62439">
        <ele>100.6</ele>
        <time>2022-02-03T08:04:16Z</time>
      </trkpt>
      <trkpt lat="44.43743" lon="4.62417">
        <ele>100.11</ele>
        <time>2022-02-03T08:04:47Z</time>
      </trkpt>
      <trkpt lat="44.43677" lon="4.62377">
        <ele>102.52</ele>
        <time>2022-02-03T08:05:46Z</time>
      </trkpt>
      <trkpt lat="44.43644" lon="4.62376">
        <ele>104.44</ele>
        <time>2022-02-03T08:06:13Z</time>
      </trkpt>
      <trkpt lat="44.43628" lon="4.6236">
        <ele>105.4</ele>
        <time>2022-02-03T08:06:29Z</time>
      </trkpt>
      <trkpt lat="44.43612" lon="4.62341">
        <ele>107.81</ele>
        <time>2022-02-03T08:06:48Z</time>
      </trkpt>
      <trkpt lat="44.43592" lon="4.62317">
        <ele>109.25</ele>
        <time>2022-02-03T08:07:12Z</time>
      </trkpt>
      <trkpt lat="44.43572" lon="4.623">
        <ele>109.73</ele>
        <time>2022-02-03T08:07:32Z</time>
      </trkpt>
      <trkpt lat="44.43548" lon="4.62275">
        <ele>111.65</ele>
        <time>2022-02-03T08:07:57Z</time>
      </trkpt>
      <trkpt lat="44.43529" lon="4.62256">
        <ele>112.13</ele>
        <time>2022-02-03T08:08:17Z</time>
      </trkpt>
      <trkpt lat="44.43508" lon="4.62239">
        <ele>113.57</ele>
        <time>2022-02-03T08:08:35Z</time>
      </trkpt>
      <trkpt lat="44.43492" lon="4.62224">
        <ele>114.05</ele>
        <time>2022-02-03T08:08:52Z</time>
      </trkpt>
      <trkpt lat="44.43477" lon="4.62208">
        <ele>114.53</ele>
        <time>2022-02-03T08:09:07Z</time>
      </trkpt>
      <trkpt lat="44.43464" lon="4.62193">
        <ele>115.01</ele>
        <time>2022-02-03T08:09:21Z</time>
      </trkpt>
      <trkpt lat="44.43451" lon="4.62174">
        <ele>116.46</ele>
        <time>2022-02-03T08:09:37Z</time>
      </trkpt>
      <trkpt lat="44.43425" lon="4.6214">
        <ele>116.94</ele>
        <time>2022-02-03T08:10:08Z</time>
      </trkpt>
      <trkpt lat="44.43404" lon="4.62127">
        <ele>115.5</ele>
        <time>2022-02-03T08:10:26Z</time>
      </trkpt>
      <trkpt lat="44.43382" lon="4.62106">
        <ele>113.09</ele>
        <time>2022-02-03T08:15:53Z</time>
      </trkpt>
      <trkpt lat="44.43374" lon="4.62072">
        <ele>112.61</ele>
        <time>2022-02-03T08:16:15Z</time>
      </trkpt>
      <trkpt lat="44.43354" lon="4.62079">
        <ele>112.13</ele>
        <time>2022-02-03T08:16:32Z</time>
      </trkpt>
      <trkpt lat="44.43333" lon="4.6208">
        <ele>112.13</ele>
        <time>2022-02-03T08:16:48Z</time>
      </trkpt>
      <trkpt lat="44.43316" lon="4.62068">
        <ele>111.65</ele>
        <time>2022-02-03T08:17:04Z</time>
      </trkpt>
      <trkpt lat="44.43298" lon="4.62055">
        <ele>111.65</ele>
        <time>2022-02-03T08:17:20Z</time>
      </trkpt>
      <trkpt lat="44.43278" lon="4.62045">
        <ele>109.73</ele>
        <time>2022-02-03T08:17:35Z</time>
      </trkpt>
      <trkpt lat="44.43259" lon="4.6205">
        <ele>108.29</ele>
        <time>2022-02-03T08:17:50Z</time>
      </trkpt>
      <trkpt lat="44.43239" lon="4.62056">
        <ele>106.84</ele>
        <time>2022-02-03T08:18:05Z</time>
      </trkpt>
      <trkpt lat="44.43219" lon="4.62063">
        <ele>104.92</ele>
        <time>2022-02-03T08:18:21Z</time>
      </trkpt>
      <trkpt lat="44.43197" lon="4.6207">
        <ele>103.48</ele>
        <time>2022-02-03T08:18:37Z</time>
      </trkpt>
      <trkpt lat="44.4318" lon="4.62078">
        <ele>102.04</ele>
        <time>2022-02-03T08:18:54Z</time>
      </trkpt>
      <trkpt lat="44.43162" lon="4.62086">
        <ele>101.08</ele>
        <time>2022-02-03T08:19:06Z</time>
      </trkpt>
      <trkpt lat="44.43145" lon="4.62094">
        <ele>101.08</ele>
        <time>2022-02-03T08:19:20Z</time>
      </trkpt>
      <trkpt lat="44.43125" lon="4.62094">
        <ele>100.6</ele>
        <time>2022-02-03T08:19:36Z</time>
      </trkpt>
      <trkpt lat="44.43112" lon="4.62075">
        <ele>100.6</ele>
        <time>2022-02-03T08:19:51Z</time>
      </trkpt>
      <trkpt lat="44.43111" lon="4.62047">
        <ele>100.11</ele>
        <time>2022-02-03T08:20:07Z</time>
      </trkpt>
      <trkpt lat="44.4311" lon="4.62019">
        <ele>99.15</ele>
        <time>2022-02-03T08:20:23Z</time>
      </trkpt>
      <trkpt lat="44.4311" lon="4.6199">
        <ele>99.15</ele>
        <time>2022-02-03T08:20:38Z</time>
      </trkpt>
      <trkpt lat="44.43105" lon="4.61964">
        <ele>97.71</ele>
        <time>2022-02-03T08:20:53Z</time>
      </trkpt>
      <trkpt lat="44.43092" lon="4.61947">
        <ele>100.11</ele>
        <time>2022-02-03T08:21:11Z</time>
      </trkpt>
      <trkpt lat="44.43089" lon="4.61972">
        <ele>100.6</ele>
        <time>2022-02-03T08:21:30Z</time>
      </trkpt>
      <trkpt lat="44.4309" lon="4.61968">
        <ele>100.6</ele>
        <time>2022-02-03T08:22:01Z</time>
      </trkpt>
      <trkpt lat="44.43088" lon="4.61942">
        <ele>100.6</ele>
        <time>2022-02-03T08:22:20Z</time>
      </trkpt>
      <trkpt lat="44.43086" lon="4.61916">
        <ele>100.6</ele>
        <time>2022-02-03T08:22:35Z</time>
      </trkpt>
      <trkpt lat="44.43086" lon="4.61889">
        <ele>99.63</ele>
        <time>2022-02-03T08:22:52Z</time>
      </trkpt>
      <trkpt lat="44.43088" lon="4.61861">
        <ele>99.15</ele>
        <time>2022-02-03T08:23:08Z</time>
      </trkpt>
      <trkpt lat="44.43088" lon="4.61833">
        <ele>98.67</ele>
        <time>2022-02-03T08:23:24Z</time>
      </trkpt>
      <trkpt lat="44.431" lon="4.61814">
        <ele>98.19</ele>
        <time>2022-02-03T08:23:39Z</time>
      </trkpt>
      <trkpt lat="44.43111" lon="4.61795">
        <ele>98.19</ele>
        <time>2022-02-03T08:23:56Z</time>
      </trkpt>
      <trkpt lat="44.43097" lon="4.61775">
        <ele>99.63</ele>
        <time>2022-02-03T08:24:20Z</time>
      </trkpt>
      <trkpt lat="44.43078" lon="4.61749">
        <ele>101.08</ele>
        <time>2022-02-03T08:24:43Z</time>
      </trkpt>
      <trkpt lat="44.43046" lon="4.6171">
        <ele>105.88</ele>
        <time>2022-02-03T08:25:27Z</time>
      </trkpt>
      <trkpt lat="44.43012" lon="4.61681">
        <ele>110.21</ele>
        <time>2022-02-03T08:26:07Z</time>
      </trkpt>
      <trkpt lat="44.42995" lon="4.61634">
        <ele>114.53</ele>
        <time>2022-02-03T08:26:48Z</time>
      </trkpt>
      <trkpt lat="44.42984" lon="4.61611">
        <ele>116.46</ele>
        <time>2022-02-03T08:27:08Z</time>
      </trkpt>
      <trkpt lat="44.42973" lon="4.61591">
        <ele>117.42</ele>
        <time>2022-02-03T08:27:25Z</time>
      </trkpt>
      <trkpt lat="44.42963" lon="4.61567">
        <ele>118.38</ele>
        <time>2022-02-03T08:27:41Z</time>
      </trkpt>
      <trkpt lat="44.42955" lon="4.61542">
        <ele>118.86</ele>
        <time>2022-02-03T08:27:59Z</time>
      </trkpt>
      <trkpt lat="44.42946" lon="4.61518">
        <ele>119.82</ele>
        <time>2022-02-03T08:28:16Z</time>
      </trkpt>
      <trkpt lat="44.42941" lon="4.61495">
        <ele>119.34</ele>
        <time>2022-02-03T08:28:34Z</time>
      </trkpt>
      <trkpt lat="44.4293" lon="4.6146">
        <ele>117.42</ele>
        <time>2022-02-03T08:28:58Z</time>
      </trkpt>
      <trkpt lat="44.42909" lon="4.61427">
        <ele>115.01</ele>
        <time>2022-02-03T08:29:26Z</time>
      </trkpt>
      <trkpt lat="44.42877" lon="4.61359">
        <ele>113.57</ele>
        <time>2022-02-03T08:30:13Z</time>
      </trkpt>
      <trkpt lat="44.42795" lon="4.61083">
        <ele>137.764679</ele>
      </trkpt>
      <trkpt lat="44.42615" lon="4.60857">
        <ele>150.58</ele>
        <time>2022-02-03T08:40:48Z</time>
      </trkpt>
      <trkpt lat="44.42582" lon="4.60635">
        <ele>183.509827</ele>
      </trkpt>
      <trkpt lat="44.42439" lon="4.60456">
        <ele>205.285797</ele>
      </trkpt>
      <trkpt lat="44.42431" lon="4.60299">
        <ele>234.020004</ele>
      </trkpt>
      <trkpt lat="44.42281" lon="4.60145">
        <ele>238.094437</ele>
        <time>2022-02-03T08:56:44Z</time>
      </trkpt>
      <trkpt lat="44.42354" lon="4.60158">
        <ele>227.01</ele>
        <time>2022-02-03T08:59:18Z</time>
      </trkpt>
      <trkpt lat="44.42426" lon="4.60169">
        <ele>216.91</ele>
        <time>2022-02-03T09:01:54Z</time>
      </trkpt>
      <trkpt lat="44.4236" lon="4.60039">
        <ele>220.343948</ele>
        <time>2022-02-03T09:05:54Z</time>
      </trkpt>
      <trkpt lat="44.42402" lon="4.59774">
        <ele>206.226624</ele>
      </trkpt>
      <trkpt lat="44.42533" lon="4.59707">
        <ele>185.894714</ele>
      </trkpt>
      <trkpt lat="44.42496" lon="4.5946">
        <ele>194.791885</ele>
      </trkpt>
      <trkpt lat="44.42428" lon="4.59247">
        <ele>189.697235</ele>
      </trkpt>
      <trkpt lat="44.42299" lon="4.59173">
        <ele>206.41069</ele>
      </trkpt>
      <trkpt lat="44.42193" lon="4.59178">
        <ele>229.98732</ele>
      </trkpt>
      <trkpt lat="44.42171" lon="4.59083">
        <ele>240.231766</ele>
      </trkpt>
      <trkpt lat="44.42115" lon="4.59034">
        <ele>245.318756</ele>
      </trkpt>
      <trkpt lat="44.42077" lon="4.58945">
        <ele>246.078995</ele>
      </trkpt>
      <trkpt lat="44.42006" lon="4.58888">
        <ele>233.26</ele>
        <time>2022-02-03T09:30:54Z</time>
      </trkpt>
      <trkpt lat="44.41901" lon="4.58969">
        <ele>272.576538</ele>
      </trkpt>
      <trkpt lat="44.41845" lon="4.58954">
        <ele>275.129639</ele>
      </trkpt>
      <trkpt lat="44.41753" lon="4.58813">
        <ele>283.156555</ele>
      </trkpt>
      <trkpt lat="44.4174" lon="4.58937">
        <ele>288.455383</ele>
        <time>2022-02-03T09:36:46Z</time>
      </trkpt>
      <trkpt lat="44.41781" lon="4.59005">
        <ele>295.239929</ele>
      </trkpt>
      <trkpt lat="44.41671" lon="4.58869">
        <ele>298.55307</ele>
      </trkpt>
      <trkpt lat="44.41622" lon="4.58961">
        <ele>321.004364</ele>
      </trkpt>
      <trkpt lat="44.41649" lon="4.59087">
        <ele>324.58</ele>
        <time>2022-02-03T09:49:38Z</time>
      </trkpt>
      <trkpt lat="44.41637" lon="4.59274">
        <ele>338.04</ele>
        <time>2022-02-03T09:59:52Z</time>
      </trkpt>
      <trkpt lat="44.41628" lon="4.59249">
        <ele>336.6</ele>
        <time>2022-02-03T10:00:11Z</time>
      </trkpt>
      <trkpt lat="44.41602" lon="4.59223">
        <ele>335.64</ele>
        <time>2022-02-03T10:00:37Z</time>
      </trkpt>
      <trkpt lat="44.41578" lon="4.59211">
        <ele>334.2</ele>
        <time>2022-02-03T10:00:58Z</time>
      </trkpt>
      <trkpt lat="44.41549" lon="4.59196">
        <ele>332.75</ele>
        <time>2022-02-03T10:01:25Z</time>
      </trkpt>
      <trkpt lat="44.41525" lon="4.59182">
        <ele>330.83</ele>
        <time>2022-02-03T10:01:46Z</time>
      </trkpt>
      <trkpt lat="44.41501" lon="4.59173">
        <ele>328.91</ele>
        <time>2022-02-03T10:02:07Z</time>
      </trkpt>
      <trkpt lat="44.41478" lon="4.5917">
        <ele>327.47</ele>
        <time>2022-02-03T10:02:28Z</time>
      </trkpt>
      <trkpt lat="44.41454" lon="4.59174">
        <ele>326.99</ele>
        <time>2022-02-03T10:02:49Z</time>
      </trkpt>
      <trkpt lat="44.41433" lon="4.59172">
        <ele>325.06</ele>
        <time>2022-02-03T10:03:08Z</time>
      </trkpt>
      <trkpt lat="44.4141" lon="4.59172">
        <ele>323.62</ele>
        <time>2022-02-03T10:03:32Z</time>
      </trkpt>
      <trkpt lat="44.41385" lon="4.59164">
        <ele>322.66</ele>
        <time>2022-02-03T10:03:51Z</time>
      </trkpt>
      <trkpt lat="44.41364" lon="4.59151">
        <ele>321.7</ele>
        <time>2022-02-03T10:04:11Z</time>
      </trkpt>
      <trkpt lat="44.41351" lon="4.59126">
        <ele>321.7</ele>
        <time>2022-02-03T10:04:30Z</time>
      </trkpt>
      <trkpt lat="44.41357" lon="4.59035">
        <ele>330.35</ele>
        <time>2022-02-03T10:05:39Z</time>
      </trkpt>
      <trkpt lat="44.41343" lon="4.58998">
        <ele>335.64</ele>
        <time>2022-02-03T10:06:14Z</time>
      </trkpt>
      <trkpt lat="44.41323" lon="4.58977">
        <ele>338.04</ele>
        <time>2022-02-03T10:06:38Z</time>
      </trkpt>
      <trkpt lat="44.41306" lon="4.58959">
        <ele>339.96</ele>
        <time>2022-02-03T10:07:05Z</time>
      </trkpt>
      <trkpt lat="44.4129" lon="4.58939">
        <ele>341.41</ele>
        <time>2022-02-03T10:07:28Z</time>
      </trkpt>
      <trkpt lat="44.41271" lon="4.58921">
        <ele>343.33</ele>
        <time>2022-02-03T10:07:49Z</time>
      </trkpt>
      <trkpt lat="44.41253" lon="4.58904">
        <ele>343.81</ele>
        <time>2022-02-03T10:08:08Z</time>
      </trkpt>
      <trkpt lat="44.41238" lon="4.58883">
        <ele>344.29</ele>
        <time>2022-02-03T10:08:24Z</time>
      </trkpt>
      <trkpt lat="44.41228" lon="4.5886">
        <ele>344.29</ele>
        <time>2022-02-03T10:08:40Z</time>
      </trkpt>
      <trkpt lat="44.41213" lon="4.58841">
        <ele>344.29</ele>
        <time>2022-02-03T10:08:55Z</time>
      </trkpt>
      <trkpt lat="44.41199" lon="4.58824">
        <ele>341.89</ele>
        <time>2022-02-03T10:09:11Z</time>
      </trkpt>
      <trkpt lat="44.41182" lon="4.5881">
        <ele>340.92</ele>
        <time>2022-02-03T10:09:29Z</time>
      </trkpt>
      <trkpt lat="44.41159" lon="4.58794">
        <ele>339.48</ele>
        <time>2022-02-03T10:09:48Z</time>
      </trkpt>
      <trkpt lat="44.41136" lon="4.58766">
        <ele>336.6</ele>
        <time>2022-02-03T10:10:15Z</time>
      </trkpt>
      <trkpt lat="44.41117" lon="4.58748">
        <ele>334.2</ele>
        <time>2022-02-03T10:10:33Z</time>
      </trkpt>
      <trkpt lat="44.41106" lon="4.58724">
        <ele>331.79</ele>
        <time>2022-02-03T10:10:49Z</time>
      </trkpt>
      <trkpt lat="44.41114" lon="4.58694">
        <ele>332.27</ele>
        <time>2022-02-03T10:11:08Z</time>
      </trkpt>
      <trkpt lat="44.41112" lon="4.58669">
        <ele>333.71</ele>
        <time>2022-02-03T10:12:07Z</time>
      </trkpt>
      <trkpt lat="44.41106" lon="4.58641">
        <ele>337.08</ele>
        <time>2022-02-03T10:12:30Z</time>
      </trkpt>
      <trkpt lat="44.41106" lon="4.5861">
        <ele>339.48</ele>
        <time>2022-02-03T10:12:51Z</time>
      </trkpt>
      <trkpt lat="44.41109" lon="4.58578">
        <ele>343.33</ele>
        <time>2022-02-03T10:13:16Z</time>
      </trkpt>
      <trkpt lat="44.41117" lon="4.58531">
        <ele>347.65</ele>
        <time>2022-02-03T10:13:56Z</time>
      </trkpt>
      <trkpt lat="44.41116" lon="4.58435">
        <ele>353.42</ele>
        <time>2022-02-03T10:18:29Z</time>
      </trkpt>
      <trkpt lat="44.41141" lon="4.58163">
        <ele>342.85</ele>
        <time>2022-02-03T10:21:51Z</time>
      </trkpt>
      <trkpt lat="44.41151" lon="4.58064">
        <ele>338.52</ele>
        <time>2022-02-03T10:22:54Z</time>
      </trkpt>
      <trkpt lat="44.41153" lon="4.57981">
        <ele>334.68</ele>
        <time>2022-02-03T10:23:59Z</time>
      </trkpt>
      <trkpt lat="44.41158" lon="4.57934">
        <ele>330.83</ele>
        <time>2022-02-03T10:24:27Z</time>
      </trkpt>
      <trkpt lat="44.41162" lon="4.57891">
        <ele>327.95</ele>
        <time>2022-02-03T10:24:53Z</time>
      </trkpt>
      <trkpt lat="44.41166" lon="4.57812">
        <ele>332.27</ele>
        <time>2022-02-03T10:27:04Z</time>
      </trkpt>
      <trkpt lat="44.41172" lon="4.57765">
        <ele>333.23</ele>
        <time>2022-02-03T10:27:36Z</time>
      </trkpt>
      <trkpt lat="44.41174" lon="4.5773">
        <ele>333.23</ele>
        <time>2022-02-03T10:27:54Z</time>
      </trkpt>
      <trkpt lat="44.41177" lon="4.57702">
        <ele>333.23</ele>
        <time>2022-02-03T10:28:11Z</time>
      </trkpt>
      <trkpt lat="44.41178" lon="4.57674">
        <ele>333.23</ele>
        <time>2022-02-03T10:28:27Z</time>
      </trkpt>
      <trkpt lat="44.4118" lon="4.57648">
        <ele>333.71</ele>
        <time>2022-02-03T10:28:45Z</time>
      </trkpt>
      <trkpt lat="44.41182" lon="4.57619">
        <ele>333.71</ele>
        <time>2022-02-03T10:29:03Z</time>
      </trkpt>
      <trkpt lat="44.41183" lon="4.57591">
        <ele>333.71</ele>
        <time>2022-02-03T10:29:23Z</time>
      </trkpt>
      <trkpt lat="44.41192" lon="4.57542">
        <ele>331.31</ele>
        <time>2022-02-03T10:30:06Z</time>
      </trkpt>
      <trkpt lat="44.41194" lon="4.57473">
        <ele>329.87</ele>
        <time>2022-02-03T10:30:54Z</time>
      </trkpt>
      <trkpt lat="44.41203" lon="4.57403">
        <ele>332.75</ele>
        <time>2022-02-03T10:31:51Z</time>
      </trkpt>
      <trkpt lat="44.41206" lon="4.57366">
        <ele>334.2</ele>
        <time>2022-02-03T10:32:43Z</time>
      </trkpt>
      <trkpt lat="44.41208" lon="4.57336">
        <ele>334.68</ele>
        <time>2022-02-03T10:33:03Z</time>
      </trkpt>
      <trkpt lat="44.4121" lon="4.57303">
        <ele>335.16</ele>
        <time>2022-02-03T10:33:27Z</time>
      </trkpt>
      <trkpt lat="44.41213" lon="4.57272">
        <ele>335.16</ele>
        <time>2022-02-03T10:33:48Z</time>
      </trkpt>
      <trkpt lat="44.41214" lon="4.57241">
        <ele>334.2</ele>
        <time>2022-02-03T10:34:08Z</time>
      </trkpt>
      <trkpt lat="44.41216" lon="4.57212">
        <ele>332.75</ele>
        <time>2022-02-03T10:34:27Z</time>
      </trkpt>
      <trkpt lat="44.41219" lon="4.57182">
        <ele>332.75</ele>
        <time>2022-02-03T10:34:46Z</time>
      </trkpt>
      <trkpt lat="44.41221" lon="4.57151">
        <ele>334.2</ele>
        <time>2022-02-03T10:35:08Z</time>
      </trkpt>
      <trkpt lat="44.41223" lon="4.57122">
        <ele>335.16</ele>
        <time>2022-02-03T10:35:32Z</time>
      </trkpt>
      <trkpt lat="44.41224" lon="4.57094">
        <ele>335.64</ele>
        <time>2022-02-03T10:35:54Z</time>
      </trkpt>
      <trkpt lat="44.41225" lon="4.57063">
        <ele>336.12</ele>
        <time>2022-02-03T10:36:14Z</time>
      </trkpt>
      <trkpt lat="44.41231" lon="4.57033">
        <ele>336.12</ele>
        <time>2022-02-03T10:36:35Z</time>
      </trkpt>
      <trkpt lat="44.41233" lon="4.57002">
        <ele>336.12</ele>
        <time>2022-02-03T10:36:59Z</time>
      </trkpt>
      <trkpt lat="44.41235" lon="4.56975">
        <ele>336.6</ele>
        <time>2022-02-03T10:37:18Z</time>
      </trkpt>
      <trkpt lat="44.41236" lon="4.56943">
        <ele>338.04</ele>
        <time>2022-02-03T10:37:40Z</time>
      </trkpt>
      <trkpt lat="44.41245" lon="4.56854">
        <ele>339</ele>
        <time>2022-02-03T10:38:48Z</time>
      </trkpt>
      <trkpt lat="44.41278" lon="4.56784">
        <ele>336.12</ele>
        <time>2022-02-03T10:39:46Z</time>
      </trkpt>
      <trkpt lat="44.4129" lon="4.5676">
        <ele>334.68</ele>
        <time>2022-02-03T10:40:02Z</time>
      </trkpt>
      <trkpt lat="44.41309" lon="4.56747">
        <ele>334.2</ele>
        <time>2022-02-03T10:40:26Z</time>
      </trkpt>
      <trkpt lat="44.41329" lon="4.56714">
        <ele>332.27</ele>
        <time>2022-02-03T10:40:59Z</time>
      </trkpt>
      <trkpt lat="44.41362" lon="4.5665">
        <ele>328.43</ele>
        <time>2022-02-03T10:41:46Z</time>
      </trkpt>
      <trkpt lat="44.41374" lon="4.56598">
        <ele>326.02</ele>
        <time>2022-02-03T10:42:23Z</time>
      </trkpt>
      <trkpt lat="44.41381" lon="4.56561">
        <ele>325.54</ele>
        <time>2022-02-03T10:42:50Z</time>
      </trkpt>
      <trkpt lat="44.41384" lon="4.56531">
        <ele>325.06</ele>
        <time>2022-02-03T10:43:10Z</time>
      </trkpt>
      <trkpt lat="44.41388" lon="4.56492">
        <ele>326.99</ele>
        <time>2022-02-03T10:43:44Z</time>
      </trkpt>
      <trkpt lat="44.41393" lon="4.56467">
        <ele>327.95</ele>
        <time>2022-02-03T10:44:03Z</time>
      </trkpt>
      <trkpt lat="44.41399" lon="4.56443">
        <ele>328.91</ele>
        <time>2022-02-03T10:44:21Z</time>
      </trkpt>
      <trkpt lat="44.41411" lon="4.56421">
        <ele>327.47</ele>
        <time>2022-02-03T10:45:08Z</time>
      </trkpt>
      <trkpt lat="44.41419" lon="4.56376">
        <ele>326.5</ele>
        <time>2022-02-03T10:46:38Z</time>
      </trkpt>
      <trkpt lat="44.41453" lon="4.56383">
        <ele>324.58</ele>
        <time>2022-02-03T10:47:18Z</time>
      </trkpt>
      <trkpt lat="44.41484" lon="4.56382">
        <ele>322.66</ele>
        <time>2022-02-03T10:47:45Z</time>
      </trkpt>
      <trkpt lat="44.41522" lon="4.56381">
        <ele>320.26</ele>
        <time>2022-02-03T10:48:22Z</time>
      </trkpt>
      <trkpt lat="44.41569" lon="4.564">
        <ele>317.37</ele>
        <time>2022-02-03T10:49:08Z</time>
      </trkpt>
      <trkpt lat="44.41619" lon="4.56463">
        <ele>311.6</ele>
        <time>2022-02-03T10:50:17Z</time>
      </trkpt>
      <trkpt lat="44.41643" lon="4.56491">
        <ele>309.2</ele>
        <time>2022-02-03T10:50:47Z</time>
      </trkpt>
      <trkpt lat="44.4167" lon="4.56487">
        <ele>304.39</ele>
        <time>2022-02-03T10:51:26Z</time>
      </trkpt>
      <trkpt lat="44.41726" lon="4.56471">
        <ele>284.21</ele>
        <time>2022-02-03T10:53:49Z</time>
      </trkpt>
      <trkpt lat="44.41803" lon="4.56549">
        <ele>265.94</ele>
        <time>2022-02-03T11:32:50Z</time>
      </trkpt>
      <trkpt lat="44.42056" lon="4.56481">
        <ele>328.43</ele>
        <time>2022-02-03T11:47:47Z</time>
      </trkpt>
      <trkpt lat="44.42111" lon="4.56474">
        <ele>331.31</ele>
        <time>2022-02-03T11:51:13Z</time>
      </trkpt>
      <trkpt lat="44.42132" lon="4.56476">
        <ele>332.75</ele>
        <time>2022-02-03T11:51:35Z</time>
      </trkpt>
      <trkpt lat="44.42157" lon="4.56478">
        <ele>333.23</ele>
        <time>2022-02-03T11:52:01Z</time>
      </trkpt>
      <trkpt lat="44.42186" lon="4.56505">
        <ele>334.2</ele>
        <time>2022-02-03T11:52:35Z</time>
      </trkpt>
      <trkpt lat="44.42209" lon="4.56503">
        <ele>335.16</ele>
        <time>2022-02-03T11:52:57Z</time>
      </trkpt>
      <trkpt lat="44.42271" lon="4.56479">
        <ele>338.04</ele>
        <time>2022-02-03T11:54:02Z</time>
      </trkpt>
      <trkpt lat="44.42286" lon="4.56442">
        <ele>339</ele>
        <time>2022-02-03T11:54:33Z</time>
      </trkpt>
      <trkpt lat="44.42302" lon="4.56394">
        <ele>338.52</ele>
        <time>2022-02-03T11:55:05Z</time>
      </trkpt>
      <trkpt lat="44.42325" lon="4.56359">
        <ele>340.44</ele>
        <time>2022-02-03T11:55:36Z</time>
      </trkpt>
      <trkpt lat="44.42341" lon="4.56352">
        <ele>341.41</ele>
        <time>2022-02-03T11:55:52Z</time>
      </trkpt>
      <trkpt lat="44.42359" lon="4.56339">
        <ele>341.89</ele>
        <time>2022-02-03T11:56:13Z</time>
      </trkpt>
      <trkpt lat="44.4238" lon="4.56328">
        <ele>342.37</ele>
        <time>2022-02-03T11:56:34Z</time>
      </trkpt>
      <trkpt lat="44.42401" lon="4.56314">
        <ele>342.85</ele>
        <time>2022-02-03T11:56:57Z</time>
      </trkpt>
      <trkpt lat="44.42431" lon="4.563">
        <ele>343.81</ele>
        <time>2022-02-03T11:57:27Z</time>
      </trkpt>
      <trkpt lat="44.42461" lon="4.56282">
        <ele>344.77</ele>
        <time>2022-02-03T11:57:58Z</time>
      </trkpt>
      <trkpt lat="44.42484" lon="4.56271">
        <ele>345.73</ele>
        <time>2022-02-03T11:58:18Z</time>
      </trkpt>
      <trkpt lat="44.42506" lon="4.56261">
        <ele>346.69</ele>
        <time>2022-02-03T11:58:38Z</time>
      </trkpt>
      <trkpt lat="44.42526" lon="4.56249">
        <ele>346.21</ele>
        <time>2022-02-03T11:59:01Z</time>
      </trkpt>
      <trkpt lat="44.42552" lon="4.56244">
        <ele>346.21</ele>
        <time>2022-02-03T12:05:38Z</time>
      </trkpt>
      <trkpt lat="44.42569" lon="4.5624">
        <ele>345.73</ele>
        <time>2022-02-03T12:05:53Z</time>
      </trkpt>
      <trkpt lat="44.42586" lon="4.56244">
        <ele>344.29</ele>
        <time>2022-02-03T12:06:06Z</time>
      </trkpt>
      <trkpt lat="44.42602" lon="4.56239">
        <ele>343.81</ele>
        <time>2022-02-03T12:06:20Z</time>
      </trkpt>
      <trkpt lat="44.4262" lon="4.5624">
        <ele>343.81</ele>
        <time>2022-02-03T12:06:36Z</time>
      </trkpt>
      <trkpt lat="44.42633" lon="4.56258">
        <ele>342.85</ele>
        <time>2022-02-03T12:06:51Z</time>
      </trkpt>
      <trkpt lat="44.42649" lon="4.56275">
        <ele>340.92</ele>
        <time>2022-02-03T12:07:08Z</time>
      </trkpt>
      <trkpt lat="44.4267" lon="4.5628">
        <ele>340.92</ele>
        <time>2022-02-03T12:07:24Z</time>
      </trkpt>
      <trkpt lat="44.42692" lon="4.56281">
        <ele>340.44</ele>
        <time>2022-02-03T12:07:42Z</time>
      </trkpt>
      <trkpt lat="44.42715" lon="4.56282">
        <ele>339.96</ele>
        <time>2022-02-03T12:08:00Z</time>
      </trkpt>
      <trkpt lat="44.42738" lon="4.56282">
        <ele>338.52</ele>
        <time>2022-02-03T12:08:18Z</time>
      </trkpt>
      <trkpt lat="44.42755" lon="4.56296">
        <ele>337.08</ele>
        <time>2022-02-03T12:08:34Z</time>
      </trkpt>
      <trkpt lat="44.42779" lon="4.56316">
        <ele>336.6</ele>
        <time>2022-02-03T12:08:57Z</time>
      </trkpt>
      <trkpt lat="44.42822" lon="4.5635">
        <ele>335.64</ele>
        <time>2022-02-03T12:09:34Z</time>
      </trkpt>
      <trkpt lat="44.42842" lon="4.56363">
        <ele>335.16</ele>
        <time>2022-02-03T12:09:51Z</time>
      </trkpt>
      <trkpt lat="44.42853" lon="4.56385">
        <ele>335.16</ele>
        <time>2022-02-03T12:10:08Z</time>
      </trkpt>
      <trkpt lat="44.42866" lon="4.56409">
        <ele>337.08</ele>
        <time>2022-02-03T12:10:27Z</time>
      </trkpt>
      <trkpt lat="44.42879" lon="4.56434">
        <ele>338.52</ele>
        <time>2022-02-03T12:10:46Z</time>
      </trkpt>
      <trkpt lat="44.42894" lon="4.5646">
        <ele>340.92</ele>
        <time>2022-02-03T12:11:08Z</time>
      </trkpt>
      <trkpt lat="44.42919" lon="4.56467">
        <ele>343.33</ele>
        <time>2022-02-03T12:11:33Z</time>
      </trkpt>
      <trkpt lat="44.42937" lon="4.56475">
        <ele>343.81</ele>
        <time>2022-02-03T12:11:50Z</time>
      </trkpt>
      <trkpt lat="44.42946" lon="4.56494">
        <ele>344.29</ele>
        <time>2022-02-03T12:12:04Z</time>
      </trkpt>
      <trkpt lat="44.42956" lon="4.5653">
        <ele>343.33</ele>
        <time>2022-02-03T12:12:25Z</time>
      </trkpt>
      <trkpt lat="44.42964" lon="4.56562">
        <ele>342.85</ele>
        <time>2022-02-03T12:12:46Z</time>
      </trkpt>
      <trkpt lat="44.4297" lon="4.56592">
        <ele>342.85</ele>
        <time>2022-02-03T12:13:03Z</time>
      </trkpt>
      <trkpt lat="44.42982" lon="4.56612">
        <ele>344.29</ele>
        <time>2022-02-03T12:13:22Z</time>
      </trkpt>
      <trkpt lat="44.42999" lon="4.56616">
        <ele>345.25</ele>
        <time>2022-02-03T12:13:42Z</time>
      </trkpt>
      <trkpt lat="44.43017" lon="4.56615">
        <ele>345.25</ele>
        <time>2022-02-03T12:13:59Z</time>
      </trkpt>
      <trkpt lat="44.43041" lon="4.5662">
        <ele>342.85</ele>
        <time>2022-02-03T12:14:18Z</time>
      </trkpt>
      <trkpt lat="44.43066" lon="4.56627">
        <ele>341.89</ele>
        <time>2022-02-03T12:14:38Z</time>
      </trkpt>
      <trkpt lat="44.43087" lon="4.56636">
        <ele>341.89</ele>
        <time>2022-02-03T12:14:55Z</time>
      </trkpt>
      <trkpt lat="44.4311" lon="4.56646">
        <ele>341.89</ele>
        <time>2022-02-03T12:15:14Z</time>
      </trkpt>
      <trkpt lat="44.4313" lon="4.56652">
        <ele>341.89</ele>
        <time>2022-02-03T12:15:30Z</time>
      </trkpt>
      <trkpt lat="44.43148" lon="4.5666">
        <ele>341.89</ele>
        <time>2022-02-03T12:15:45Z</time>
      </trkpt>
      <trkpt lat="44.43154" lon="4.56686">
        <ele>343.33</ele>
        <time>2022-02-03T12:17:22Z</time>
      </trkpt>
      <trkpt lat="44.43159" lon="4.56712">
        <ele>343.33</ele>
        <time>2022-02-03T12:17:39Z</time>
      </trkpt>
      <trkpt lat="44.43165" lon="4.56739">
        <ele>344.77</ele>
        <time>2022-02-03T12:17:57Z</time>
      </trkpt>
      <trkpt lat="44.4317" lon="4.56765">
        <ele>345.25</ele>
        <time>2022-02-03T12:18:13Z</time>
      </trkpt>
      <trkpt lat="44.43175" lon="4.56791">
        <ele>346.21</ele>
        <time>2022-02-03T12:18:30Z</time>
      </trkpt>
      <trkpt lat="44.43176" lon="4.56817">
        <ele>346.69</ele>
        <time>2022-02-03T12:18:46Z</time>
      </trkpt>
      <trkpt lat="44.43182" lon="4.5684">
        <ele>346.69</ele>
        <time>2022-02-03T12:19:01Z</time>
      </trkpt>
      <trkpt lat="44.43188" lon="4.56863">
        <ele>346.69</ele>
        <time>2022-02-03T12:19:15Z</time>
      </trkpt>
      <trkpt lat="44.43192" lon="4.56887">
        <ele>346.69</ele>
        <time>2022-02-03T12:19:29Z</time>
      </trkpt>
      <trkpt lat="44.43191" lon="4.56916">
        <ele>346.69</ele>
        <time>2022-02-03T12:19:47Z</time>
      </trkpt>
      <trkpt lat="44.43177" lon="4.56939">
        <ele>345.25</ele>
        <time>2022-02-03T12:20:05Z</time>
      </trkpt>
      <trkpt lat="44.4316" lon="4.56962">
        <ele>345.25</ele>
        <time>2022-02-03T12:20:25Z</time>
      </trkpt>
      <trkpt lat="44.43147" lon="4.56988">
        <ele>345.25</ele>
        <time>2022-02-03T12:20:42Z</time>
      </trkpt>
      <trkpt lat="44.43146" lon="4.57017">
        <ele>344.29</ele>
        <time>2022-02-03T12:21:01Z</time>
      </trkpt>
      <trkpt lat="44.43144" lon="4.57043">
        <ele>344.29</ele>
        <time>2022-02-03T12:21:19Z</time>
      </trkpt>
      <trkpt lat="44.43131" lon="4.5707">
        <ele>343.33</ele>
        <time>2022-02-03T12:21:40Z</time>
      </trkpt>
      <trkpt lat="44.43112" lon="4.57089">
        <ele>344.77</ele>
        <time>2022-02-03T12:21:58Z</time>
      </trkpt>
      <trkpt lat="44.43092" lon="4.57096">
        <ele>345.25</ele>
        <time>2022-02-03T12:22:17Z</time>
      </trkpt>
      <trkpt lat="44.43085" lon="4.57118">
        <ele>345.25</ele>
        <time>2022-02-03T12:22:33Z</time>
      </trkpt>
      <trkpt lat="44.43087" lon="4.57147">
        <ele>345.73</ele>
        <time>2022-02-03T12:22:51Z</time>
      </trkpt>
      <trkpt lat="44.4309" lon="4.57176">
        <ele>345.73</ele>
        <time>2022-02-03T12:23:13Z</time>
      </trkpt>
      <trkpt lat="44.43091" lon="4.57202">
        <ele>346.69</ele>
        <time>2022-02-03T12:23:30Z</time>
      </trkpt>
      <trkpt lat="44.43095" lon="4.57229">
        <ele>347.17</ele>
        <time>2022-02-03T12:23:49Z</time>
      </trkpt>
      <trkpt lat="44.43105" lon="4.57255">
        <ele>348.13</ele>
        <time>2022-02-03T12:24:07Z</time>
      </trkpt>
      <trkpt lat="44.43118" lon="4.57276">
        <ele>348.13</ele>
        <time>2022-02-03T12:24:24Z</time>
      </trkpt>
      <trkpt lat="44.4313" lon="4.57299">
        <ele>348.13</ele>
        <time>2022-02-03T12:24:42Z</time>
      </trkpt>
      <trkpt lat="44.4313" lon="4.57314">
        <ele>346.69</ele>
        <time>2022-02-03T12:25:33Z</time>
      </trkpt>
      <trkpt lat="44.43137" lon="4.5735">
        <ele>345.73</ele>
        <time>2022-02-03T12:25:56Z</time>
      </trkpt>
      <trkpt lat="44.43148" lon="4.57383">
        <ele>345.73</ele>
        <time>2022-02-03T12:26:17Z</time>
      </trkpt>
      <trkpt lat="44.43159" lon="4.57412">
        <ele>344.77</ele>
        <time>2022-02-03T12:26:36Z</time>
      </trkpt>
      <trkpt lat="44.4315" lon="4.57438">
        <ele>343.81</ele>
        <time>2022-02-03T12:26:54Z</time>
      </trkpt>
      <trkpt lat="44.43145" lon="4.57464">
        <ele>343.33</ele>
        <time>2022-02-03T12:27:12Z</time>
      </trkpt>
      <trkpt lat="44.43139" lon="4.57489">
        <ele>342.85</ele>
        <time>2022-02-03T12:27:28Z</time>
      </trkpt>
      <trkpt lat="44.43144" lon="4.57516">
        <ele>342.85</ele>
        <time>2022-02-03T12:27:46Z</time>
      </trkpt>
      <trkpt lat="44.43152" lon="4.57541">
        <ele>342.37</ele>
        <time>2022-02-03T12:28:03Z</time>
      </trkpt>
      <trkpt lat="44.43162" lon="4.57566">
        <ele>341.89</ele>
        <time>2022-02-03T12:28:21Z</time>
      </trkpt>
      <trkpt lat="44.43174" lon="4.5759">
        <ele>342.37</ele>
        <time>2022-02-03T12:28:40Z</time>
      </trkpt>
      <trkpt lat="44.43175" lon="4.57616">
        <ele>342.37</ele>
        <time>2022-02-03T12:28:58Z</time>
      </trkpt>
      <trkpt lat="44.43178" lon="4.57644">
        <ele>342.37</ele>
        <time>2022-02-03T12:29:14Z</time>
      </trkpt>
      <trkpt lat="44.43182" lon="4.57671">
        <ele>341.41</ele>
        <time>2022-02-03T12:29:31Z</time>
      </trkpt>
      <trkpt lat="44.43186" lon="4.57698">
        <ele>341.41</ele>
        <time>2022-02-03T12:29:48Z</time>
      </trkpt>
      <trkpt lat="44.43188" lon="4.57724">
        <ele>341.41</ele>
        <time>2022-02-03T12:30:07Z</time>
      </trkpt>
      <trkpt lat="44.4319" lon="4.5775">
        <ele>341.41</ele>
        <time>2022-02-03T12:30:24Z</time>
      </trkpt>
      <trkpt lat="44.43193" lon="4.57777">
        <ele>340.92</ele>
        <time>2022-02-03T12:30:40Z</time>
      </trkpt>
      <trkpt lat="44.43203" lon="4.57797">
        <ele>340.92</ele>
        <time>2022-02-03T12:30:57Z</time>
      </trkpt>
      <trkpt lat="44.43214" lon="4.57818">
        <ele>340.92</ele>
        <time>2022-02-03T12:31:14Z</time>
      </trkpt>
      <trkpt lat="44.43225" lon="4.57839">
        <ele>340.92</ele>
        <time>2022-02-03T12:31:35Z</time>
      </trkpt>
      <trkpt lat="44.43228" lon="4.57902">
        <ele>339.96</ele>
        <time>2022-02-03T12:35:32Z</time>
      </trkpt>
      <trkpt lat="44.43221" lon="4.57936">
        <ele>339.48</ele>
        <time>2022-02-03T12:35:49Z</time>
      </trkpt>
      <trkpt lat="44.43223" lon="4.57963">
        <ele>340.92</ele>
        <time>2022-02-03T12:36:07Z</time>
      </trkpt>
      <trkpt lat="44.43226" lon="4.57991">
        <ele>340.92</ele>
        <time>2022-02-03T12:36:24Z</time>
      </trkpt>
      <trkpt lat="44.43224" lon="4.58019">
        <ele>339</ele>
        <time>2022-02-03T12:36:40Z</time>
      </trkpt>
      <trkpt lat="44.43216" lon="4.58078">
        <ele>335.64</ele>
        <time>2022-02-03T12:37:30Z</time>
      </trkpt>
      <trkpt lat="44.4321" lon="4.58118">
        <ele>334.68</ele>
        <time>2022-02-03T12:37:56Z</time>
      </trkpt>
      <trkpt lat="44.43215" lon="4.58153">
        <ele>334.68</ele>
        <time>2022-02-03T12:38:20Z</time>
      </trkpt>
      <trkpt lat="44.43221" lon="4.58182">
        <ele>336.12</ele>
        <time>2022-02-03T12:38:38Z</time>
      </trkpt>
      <trkpt lat="44.43222" lon="4.58208">
        <ele>336.6</ele>
        <time>2022-02-03T12:38:57Z</time>
      </trkpt>
      <trkpt lat="44.43215" lon="4.58237">
        <ele>337.08</ele>
        <time>2022-02-03T12:39:18Z</time>
      </trkpt>
      <trkpt lat="44.43215" lon="4.5827">
        <ele>338.52</ele>
        <time>2022-02-03T12:39:40Z</time>
      </trkpt>
      <trkpt lat="44.4323" lon="4.58293">
        <ele>339.48</ele>
        <time>2022-02-03T12:40:04Z</time>
      </trkpt>
      <trkpt lat="44.4323" lon="4.58322">
        <ele>339.48</ele>
        <time>2022-02-03T12:40:28Z</time>
      </trkpt>
      <trkpt lat="44.43224" lon="4.58353">
        <ele>339.96</ele>
        <time>2022-02-03T12:40:51Z</time>
      </trkpt>
      <trkpt lat="44.43217" lon="4.58386">
        <ele>339.96</ele>
        <time>2022-02-03T12:41:13Z</time>
      </trkpt>
      <trkpt lat="44.43207" lon="4.58416">
        <ele>339.96</ele>
        <time>2022-02-03T12:41:34Z</time>
      </trkpt>
      <trkpt lat="44.43204" lon="4.58442">
        <ele>339.96</ele>
        <time>2022-02-03T12:42:16Z</time>
      </trkpt>
      <trkpt lat="44.43206" lon="4.58461">
        <ele>339</ele>
        <time>2022-02-03T12:43:14Z</time>
      </trkpt>
      <trkpt lat="44.43224" lon="4.5848">
        <ele>337.56</ele>
        <time>2022-02-03T12:43:43Z</time>
      </trkpt>
      <trkpt lat="44.43252" lon="4.58482">
        <ele>335.64</ele>
        <time>2022-02-03T12:44:07Z</time>
      </trkpt>
      <trkpt lat="44.43653" lon="4.5866">
        <ele>258.73</ele>
        <time>2022-02-03T12:59:04Z</time>
      </trkpt>
      <trkpt lat="44.43652" lon="4.58708">
        <ele>254.89</ele>
        <time>2022-02-03T12:59:46Z</time>
      </trkpt>
      <trkpt lat="44.43648" lon="4.58739">
        <ele>252.48</ele>
        <time>2022-02-03T13:00:08Z</time>
      </trkpt>
      <trkpt lat="44.43644" lon="4.58774">
        <ele>250.56</ele>
        <time>2022-02-03T13:00:30Z</time>
      </trkpt>
      <trkpt lat="44.43645" lon="4.58806">
        <ele>248.16</ele>
        <time>2022-02-03T13:00:55Z</time>
      </trkpt>
      <trkpt lat="44.43653" lon="4.58839">
        <ele>246.72</ele>
        <time>2022-02-03T13:01:14Z</time>
      </trkpt>
      <trkpt lat="44.4367" lon="4.58864">
        <ele>246.23</ele>
        <time>2022-02-03T13:01:32Z</time>
      </trkpt>
      <trkpt lat="44.43688" lon="4.58874">
        <ele>245.75</ele>
        <time>2022-02-03T13:01:50Z</time>
      </trkpt>
      <trkpt lat="44.43705" lon="4.58892">
        <ele>245.75</ele>
        <time>2022-02-03T13:02:08Z</time>
      </trkpt>
      <trkpt lat="44.43732" lon="4.58995">
        <ele>240.95</ele>
        <time>2022-02-03T13:03:38Z</time>
      </trkpt>
      <trkpt lat="44.43864" lon="4.59013">
        <ele>248.64</ele>
        <time>2022-02-03T13:06:34Z</time>
      </trkpt>
      <trkpt lat="44.43901" lon="4.58993">
        <ele>249.6</ele>
        <time>2022-02-03T13:16:31Z</time>
      </trkpt>
      <trkpt lat="44.43821" lon="4.59004">
        <ele>247.2</ele>
        <time>2022-02-03T13:18:45Z</time>
      </trkpt>
      <trkpt lat="44.43759" lon="4.59017">
        <ele>242.87</ele>
        <time>2022-02-03T13:19:46Z</time>
      </trkpt>
      <trkpt lat="44.43705" lon="4.58944">
        <ele>246.23</ele>
        <time>2022-02-03T13:22:46Z</time>
      </trkpt>
      <trkpt lat="44.43676" lon="4.58985">
        <ele>246.72</ele>
        <time>2022-02-03T13:23:29Z</time>
      </trkpt>
      <trkpt lat="44.43652" lon="4.58952">
        <ele>250.56</ele>
        <time>2022-02-03T13:24:07Z</time>
      </trkpt>
      <trkpt lat="44.43524" lon="4.59029">
        <ele>240.47</ele>
        <time>2022-02-03T13:26:54Z</time>
      </trkpt>
      <trkpt lat="44.43311" lon="4.59324">
        <ele>231.81</ele>
        <time>2022-02-03T13:32:29Z</time>
      </trkpt>
      <trkpt lat="44.43295" lon="4.59366">
        <ele>232.3</ele>
        <time>2022-02-03T13:33:08Z</time>
      </trkpt>
      <trkpt lat="44.43304" lon="4.59388">
        <ele>230.85</ele>
        <time>2022-02-03T13:33:29Z</time>
      </trkpt>
      <trkpt lat="44.43323" lon="4.59426">
        <ele>227.49</ele>
        <time>2022-02-03T13:34:08Z</time>
      </trkpt>
      <trkpt lat="44.43333" lon="4.59468">
        <ele>228.93</ele>
        <time>2022-02-03T13:34:40Z</time>
      </trkpt>
      <trkpt lat="44.43342" lon="4.59521">
        <ele>223.64</ele>
        <time>2022-02-03T13:35:26Z</time>
      </trkpt>
      <trkpt lat="44.4335" lon="4.59551">
        <ele>220.76</ele>
        <time>2022-02-03T13:35:48Z</time>
      </trkpt>
      <trkpt lat="44.43353" lon="4.59592">
        <ele>220.28</ele>
        <time>2022-02-03T13:36:19Z</time>
      </trkpt>
      <trkpt lat="44.43347" lon="4.59652">
        <ele>218.84</ele>
        <time>2022-02-03T13:37:03Z</time>
      </trkpt>
      <trkpt lat="44.43357" lon="4.59694">
        <ele>218.36</ele>
        <time>2022-02-03T13:37:46Z</time>
      </trkpt>
      <trkpt lat="44.43364" lon="4.59737">
        <ele>218.84</ele>
        <time>2022-02-03T13:38:22Z</time>
      </trkpt>
      <trkpt lat="44.43371" lon="4.59767">
        <ele>218.84</ele>
        <time>2022-02-03T13:38:47Z</time>
      </trkpt>
      <trkpt lat="44.43387" lon="4.59816">
        <ele>221.72</ele>
        <time>2022-02-03T13:39:24Z</time>
      </trkpt>
      <trkpt lat="44.434" lon="4.59844">
        <ele>222.2</ele>
        <time>2022-02-03T13:39:48Z</time>
      </trkpt>
      <trkpt lat="44.4342" lon="4.59881">
        <ele>221.72</ele>
        <time>2022-02-03T13:40:59Z</time>
      </trkpt>
      <trkpt lat="44.43415" lon="4.59945">
        <ele>217.88</ele>
        <time>2022-02-03T13:42:14Z</time>
      </trkpt>
      <trkpt lat="44.43417" lon="4.59983">
        <ele>215.95</ele>
        <time>2022-02-03T13:42:46Z</time>
      </trkpt>
      <trkpt lat="44.43417" lon="4.60024">
        <ele>211.15</ele>
        <time>2022-02-03T13:43:20Z</time>
      </trkpt>
      <trkpt lat="44.43395" lon="4.6007">
        <ele>209.7</ele>
        <time>2022-02-03T13:44:07Z</time>
      </trkpt>
      <trkpt lat="44.43388" lon="4.6011">
        <ele>208.74</ele>
        <time>2022-02-03T13:44:36Z</time>
      </trkpt>
      <trkpt lat="44.43341" lon="4.60203">
        <ele>209.22</ele>
        <time>2022-02-03T13:46:03Z</time>
      </trkpt>
      <trkpt lat="44.43317" lon="4.60341">
        <ele>197.21</ele>
        <time>2022-02-03T13:48:18Z</time>
      </trkpt>
      <trkpt lat="44.43312" lon="4.60461">
        <ele>179.42</ele>
        <time>2022-02-03T13:50:22Z</time>
      </trkpt>
      <trkpt lat="44.43332" lon="4.60539">
        <ele>165</ele>
        <time>2022-02-03T13:52:15Z</time>
      </trkpt>
      <trkpt lat="44.43358" lon="4.60584">
        <ele>164.04</ele>
        <time>2022-02-03T13:52:57Z</time>
      </trkpt>
      <trkpt lat="44.43365" lon="4.60613">
        <ele>162.12</ele>
        <time>2022-02-03T13:53:19Z</time>
      </trkpt>
      <trkpt lat="44.43369" lon="4.60647">
        <ele>157.79</ele>
        <time>2022-02-03T13:54:14Z</time>
      </trkpt>
      <trkpt lat="44.43376" lon="4.60679">
        <ele>154.91</ele>
        <time>2022-02-03T13:54:41Z</time>
      </trkpt>
      <trkpt lat="44.43414" lon="4.60719">
        <ele>144.82</ele>
        <time>2022-02-03T13:55:48Z</time>
      </trkpt>
      <trkpt lat="44.43432" lon="4.60754">
        <ele>144.34</ele>
        <time>2022-02-03T13:56:30Z</time>
      </trkpt>
      <trkpt lat="44.43444" lon="4.60784">
        <ele>144.82</ele>
        <time>2022-02-03T13:56:55Z</time>
      </trkpt>
      <trkpt lat="44.43454" lon="4.60816">
        <ele>147.22</ele>
        <time>2022-02-03T13:57:21Z</time>
      </trkpt>
      <trkpt lat="44.43473" lon="4.60826">
        <ele>149.62</ele>
        <time>2022-02-03T13:57:47Z</time>
      </trkpt>
      <trkpt lat="44.43511" lon="4.60809">
        <ele>153.95</ele>
        <time>2022-02-03T14:05:00Z</time>
      </trkpt>
      <trkpt lat="44.43537" lon="4.608">
        <ele>154.91</ele>
        <time>2022-02-03T14:05:26Z</time>
      </trkpt>
      <trkpt lat="44.43663" lon="4.60666">
        <ele>174.154221</ele>
      </trkpt>
      <trkpt lat="44.43897" lon="4.6054">
        <ele>204.914597</ele>
      </trkpt>
      <trkpt lat="44.43908" lon="4.60355">
        <ele>249.493622</ele>
      </trkpt>
      <trkpt lat="44.43983" lon="4.60314">
        <ele>253.175354</ele>
      </trkpt>
      <trkpt lat="44.44029" lon="4.60043">
        <ele>289.740814</ele>
      </trkpt>
      <trkpt lat="44.43992" lon="4.59954">
        <ele>299.332489</ele>
      </trkpt>
      <trkpt lat="44.43926" lon="4.5991">
        <ele>307.091583</ele>
      </trkpt>
      <trkpt lat="44.43956" lon="4.59746">
        <ele>302.95</ele>
        <time>2022-02-03T14:34:33Z</time>
      </trkpt>
      <trkpt lat="44.44194" lon="4.59554">
        <ele>326.99</ele>
        <time>2022-02-03T14:40:22Z</time>
      </trkpt>
      <trkpt lat="44.44305" lon="4.59568">
        <ele>329.87</ele>
        <time>2022-02-03T14:42:11Z</time>
      </trkpt>
      <trkpt lat="44.44326" lon="4.59556">
        <ele>331.31</ele>
        <time>2022-02-03T14:42:38Z</time>
      </trkpt>
      <trkpt lat="44.44336" lon="4.59582">
        <ele>331.31</ele>
        <time>2022-02-03T14:44:49Z</time>
      </trkpt>
      <trkpt lat="44.44348" lon="4.59608">
        <ele>330.83</ele>
        <time>2022-02-03T14:45:10Z</time>
      </trkpt>
      <trkpt lat="44.44363" lon="4.59629">
        <ele>330.83</ele>
        <time>2022-02-03T14:45:30Z</time>
      </trkpt>
      <trkpt lat="44.44376" lon="4.59651">
        <ele>330.83</ele>
        <time>2022-02-03T14:45:52Z</time>
      </trkpt>
      <trkpt lat="44.44381" lon="4.59681">
        <ele>330.35</ele>
        <time>2022-02-03T14:46:11Z</time>
      </trkpt>
      <trkpt lat="44.44377" lon="4.59708">
        <ele>328.91</ele>
        <time>2022-02-03T14:46:29Z</time>
      </trkpt>
      <trkpt lat="44.44381" lon="4.59735">
        <ele>327.47</ele>
        <time>2022-02-03T14:46:43Z</time>
      </trkpt>
      <trkpt lat="44.44386" lon="4.59755">
        <ele>327.47</ele>
        <time>2022-02-03T14:46:56Z</time>
      </trkpt>
      <trkpt lat="44.44391" lon="4.5978">
        <ele>326.5</ele>
        <time>2022-02-03T14:47:14Z</time>
      </trkpt>
      <trkpt lat="44.44398" lon="4.59808">
        <ele>326.02</ele>
        <time>2022-02-03T14:47:34Z</time>
      </trkpt>
      <trkpt lat="44.44409" lon="4.59837">
        <ele>325.54</ele>
        <time>2022-02-03T14:47:55Z</time>
      </trkpt>
      <trkpt lat="44.44423" lon="4.59862">
        <ele>325.54</ele>
        <time>2022-02-03T14:48:14Z</time>
      </trkpt>
      <trkpt lat="44.44433" lon="4.59885">
        <ele>324.58</ele>
        <time>2022-02-03T14:48:33Z</time>
      </trkpt>
      <trkpt lat="44.44444" lon="4.59934">
        <ele>324.1</ele>
        <time>2022-02-03T14:49:08Z</time>
      </trkpt>
      <trkpt lat="44.44456" lon="4.60032">
        <ele>330.35</ele>
        <time>2022-02-03T14:50:25Z</time>
      </trkpt>
      <trkpt lat="44.44456" lon="4.60061">
        <ele>330.83</ele>
        <time>2022-02-03T14:50:46Z</time>
      </trkpt>
      <trkpt lat="44.44445" lon="4.60089">
        <ele>330.35</ele>
        <time>2022-02-03T14:51:11Z</time>
      </trkpt>
      <trkpt lat="44.44424" lon="4.60141">
        <ele>330.35</ele>
        <time>2022-02-03T14:51:52Z</time>
      </trkpt>
      <trkpt lat="44.44415" lon="4.60168">
        <ele>331.31</ele>
        <time>2022-02-03T14:52:14Z</time>
      </trkpt>
      <trkpt lat="44.44403" lon="4.60376">
        <ele>337.08</ele>
        <time>2022-02-03T14:54:47Z</time>
      </trkpt>
      <trkpt lat="44.44402" lon="4.60414">
        <ele>335.64</ele>
        <time>2022-02-03T14:55:10Z</time>
      </trkpt>
      <trkpt lat="44.44406" lon="4.60447">
        <ele>334.68</ele>
        <time>2022-02-03T14:55:29Z</time>
      </trkpt>
      <trkpt lat="44.44411" lon="4.60503">
        <ele>331.79</ele>
        <time>2022-02-03T14:56:08Z</time>
      </trkpt>
      <trkpt lat="44.44431" lon="4.6053">
        <ele>328.91</ele>
        <time>2022-02-03T14:56:39Z</time>
      </trkpt>
      <trkpt lat="44.4444" lon="4.60572">
        <ele>328.43</ele>
        <time>2022-02-03T14:57:08Z</time>
      </trkpt>
      <trkpt lat="44.44441" lon="4.60603">
        <ele>329.87</ele>
        <time>2022-02-03T14:57:36Z</time>
      </trkpt>
      <trkpt lat="44.44395" lon="4.60642">
        <ele>324.1</ele>
        <time>2022-02-03T14:58:41Z</time>
      </trkpt>
      <trkpt lat="44.44368" lon="4.60672">
        <ele>324.1</ele>
        <time>2022-02-03T14:59:03Z</time>
      </trkpt>
      <trkpt lat="44.44333" lon="4.60759">
        <ele>319.3</ele>
        <time>2022-02-03T15:00:42Z</time>
      </trkpt>
      <trkpt lat="44.44294" lon="4.61035">
        <ele>325.54</ele>
        <time>2022-02-03T15:04:16Z</time>
      </trkpt>
      <trkpt lat="44.44261" lon="4.6108">
        <ele>318.33</ele>
        <time>2022-02-03T15:05:23Z</time>
      </trkpt>
      <trkpt lat="44.44261" lon="4.61126">
        <ele>316.41</ele>
        <time>2022-02-03T15:06:06Z</time>
      </trkpt>
      <trkpt lat="44.44262" lon="4.61214">
        <ele>318.81</ele>
        <time>2022-02-03T15:13:12Z</time>
      </trkpt>
      <trkpt lat="44.44246" lon="4.61219">
        <ele>321.22</ele>
        <time>2022-02-03T15:16:52Z</time>
      </trkpt>
      <trkpt lat="44.44227" lon="4.61234">
        <ele>320.74</ele>
        <time>2022-02-03T15:17:20Z</time>
      </trkpt>
      <trkpt lat="44.44233" lon="4.61267">
        <ele>320.26</ele>
        <time>2022-02-03T15:17:51Z</time>
      </trkpt>
      <trkpt lat="44.44221" lon="4.61323">
        <ele>313.05</ele>
        <time>2022-02-03T15:18:42Z</time>
      </trkpt>
      <trkpt lat="44.44209" lon="4.61367">
        <ele>308.72</ele>
        <time>2022-02-03T15:19:29Z</time>
      </trkpt>
      <trkpt lat="44.44187" lon="4.61397">
        <ele>305.36</ele>
        <time>2022-02-03T15:21:45Z</time>
      </trkpt>
      <trkpt lat="44.44175" lon="4.61426">
        <ele>302.95</ele>
        <time>2022-02-03T15:22:26Z</time>
      </trkpt>
      <trkpt lat="44.44147" lon="4.61472">
        <ele>290.46</ele>
        <time>2022-02-03T15:23:38Z</time>
      </trkpt>
      <trkpt lat="44.4411" lon="4.61517">
        <ele>274.59</ele>
        <time>2022-02-03T15:25:10Z</time>
      </trkpt>
      <trkpt lat="44.44061" lon="4.61571">
        <ele>253.44</ele>
        <time>2022-02-03T15:27:08Z</time>
      </trkpt>
      <trkpt lat="44.44055" lon="4.61601">
        <ele>246.23</ele>
        <time>2022-02-03T15:27:47Z</time>
      </trkpt>
      <trkpt lat="44.44049" lon="4.61634">
        <ele>237.1</ele>
        <time>2022-02-03T15:28:43Z</time>
      </trkpt>
      <trkpt lat="44.44053" lon="4.61672">
        <ele>228.45</ele>
        <time>2022-02-03T15:29:40Z</time>
      </trkpt>
      <trkpt lat="44.44045" lon="4.61705">
        <ele>221.24</ele>
        <time>2022-02-03T15:30:32Z</time>
      </trkpt>
      <trkpt lat="44.44037" lon="4.61731">
        <ele>217.88</ele>
        <time>2022-02-03T15:30:58Z</time>
      </trkpt>
      <trkpt lat="44.44029" lon="4.61759">
        <ele>214.03</ele>
        <time>2022-02-03T15:31:26Z</time>
      </trkpt>
      <trkpt lat="44.44024" lon="4.6184">
        <ele>195.77</ele>
        <time>2022-02-03T15:33:07Z</time>
      </trkpt>
      <trkpt lat="44.4403" lon="4.61872">
        <ele>190</ele>
        <time>2022-02-03T15:33:41Z</time>
      </trkpt>
      <trkpt lat="44.44031" lon="4.61908">
        <ele>181.83</ele>
        <time>2022-02-03T15:34:35Z</time>
      </trkpt>
      <trkpt lat="44.44038" lon="4.6195">
        <ele>173.17</ele>
        <time>2022-02-03T15:36:24Z</time>
      </trkpt>
      <trkpt lat="44.44042" lon="4.62013">
        <ele>156.35</ele>
        <time>2022-02-03T15:38:11Z</time>
      </trkpt>
      <trkpt lat="44.44053" lon="4.6204">
        <ele>150.58</ele>
        <time>2022-02-03T15:38:43Z</time>
      </trkpt>
      <trkpt lat="44.44057" lon="4.6209">
        <ele>140.01</ele>
        <time>2022-02-03T15:39:44Z</time>
      </trkpt>
      <trkpt lat="44.44033" lon="4.62233">
        <ele>104.44</ele>
        <time>2022-02-03T15:47:43Z</time>
      </trkpt>
      <trkpt lat="44.44015" lon="4.62315">
        <ele>99.63</ele>
        <time>2022-02-03T15:49:04Z</time>
      </trkpt>
      <trkpt lat="44.43987" lon="4.62372">
        <ele>99.15</ele>
        <time>2022-02-03T15:49:42Z</time>
      </trkpt>
      <trkpt lat="44.43941" lon="4.62446">
        <ele>98.19</ele>
        <time>2022-02-03T15:51:16Z</time>
      </trkpt>
    </trkseg>
  </trk>
</gpx>